Time;durP1;ratioP1;P1;durP2;ratioP2;P2;SDS_P1;SDS_P2;PMS_P1;PMS_P2;Temp;Humidity;BMP_temperature;BMP_pressure;BME280_temperature;BME280_humidity;BME280_pressure;Samples;Min_cycle;Max_cycle;Signal;HPM_P1;HPM_P2
2022/09/21 00:01:40;;;;;;;1.90;1.80;;;;;;;;;;615767;233;26576;-64
2022/09/21 00:04:09;;;;;;;1.80;1.67;;;;;;;;;;615674;234;26576;-64
2022/09/21 00:06:38;;;;;;;2.30;2.10;;;;;;;;;;615667;234;26611;-64
2022/09/21 00:09:08;;;;;;;1.73;1.62;;;;;;;;;;615721;234;27118;-64
2022/09/21 00:11:36;;;;;;;1.98;1.87;;;;;;;;;;604243;234;26593;-64
2022/09/21 00:14:06;;;;;;;1.83;1.73;;;;;;;;;;615639;234;26822;-63
2022/09/21 00:16:33;;;;;;;2.17;1.90;;;;;;;;;;615602;234;26561;-63
2022/09/21 00:19:02;;;;;;;2.50;2.10;;;;;;;;;;615659;233;26578;-63
2022/09/21 00:21:32;;;;;;;1.90;1.80;;;;;;;;;;615656;234;26617;-63
2022/09/21 00:24:01;;;;;;;1.62;1.50;;;;;;;;;;615562;234;26589;-63
2022/09/21 00:26:29;;;;;;;2.17;1.90;;;;;;;;;;615642;233;26843;-64
2022/09/21 00:28:58;;;;;;;2.03;1.80;;;;;;;;;;615615;233;26589;-63
2022/09/21 00:31:27;;;;;;;1.58;1.55;;;;;;;;;;615663;233;26865;-63
2022/09/21 00:33:56;;;;;;;1.87;1.75;;;;;;;;;;615535;233;26580;-63
2022/09/21 00:36:24;;;;;;;1.83;1.73;;;;;;;;;;616023;227;26584;-63
2022/09/21 00:38:53;;;;;;;1.70;1.60;;;;;;;;;;616961;233;26573;-63
2022/09/21 00:41:22;;;;;;;1.70;1.60;;;;;;;;;;616609;233;26644;-66
2022/09/21 00:44:06;;;;;;;1.83;1.60;;;;;;;;;;616582;233;26595;-67
2022/09/21 00:46:35;;;;;;;2.45;1.80;;;;;;;;;;614797;233;26584;-67
2022/09/21 00:49:03;;;;;;;2.40;1.67;;;;;;;;;;616159;233;26808;-66
2022/09/21 00:51:32;;;;;;;1.90;1.70;;;;;;;;;;616286;232;26563;-67
2022/09/21 00:54:01;;;;;;;2.00;1.67;;;;;;;;;;616233;233;26586;-67
2022/09/21 00:56:30;;;;;;;2.03;1.55;;;;;;;;;;615893;233;26845;-64
2022/09/21 00:58:59;;;;;;;3.08;2.20;;;;;;;;;;615945;233;26611;-66
2022/09/21 01:01:28;;;;;;;1.70;1.60;;;;;;;;;;615916;233;26604;-66
2022/09/21 01:03:57;;;;;;;1.98;1.60;;;;;;;;;;615913;233;26631;-66
2022/09/21 01:06:25;;;;;;;4.93;1.80;;;;;;;;;;615981;233;26837;-66
2022/09/21 01:08:54;;;;;;;1.70;1.60;;;;;;;;;;615974;233;26619;-66
2022/09/21 01:11:24;;;;;;;2.30;1.60;;;;;;;;;;615838;233;26904;-66
2022/09/21 01:13:56;;;;;;;2.22;1.60;;;;;;;;;;615286;233;26587;-66
2022/09/21 01:16:40;;;;;;;2.25;1.60;;;;;;;;;;614911;234;26604;-65
2022/09/21 01:19:09;;;;;;;1.77;1.67;;;;;;;;;;614005;234;26580;-65
2022/09/21 01:21:39;;;;;;;1.67;1.58;;;;;;;;;;614556;234;26804;-65
2022/09/21 01:24:24;;;;;;;1.70;1.60;;;;;;;;;;614902;234;26606;-65
2022/09/21 01:26:59;;;;;;;2.03;1.80;;;;;;;;;;611129;233;26816;-65
2022/09/21 01:29:28;;;;;;;1.80;1.70;;;;;;;;;;615606;234;27425;-65
2022/09/21 01:31:57;;;;;;;2.90;1.65;;;;;;;;;;615310;232;26552;-65
2022/09/21 01:34:28;;;;;;;1.42;1.33;;;;;;;;;;615424;234;26572;-65
2022/09/21 01:36:57;;;;;;;1.67;1.42;;;;;;;;;;615848;234;26544;-65
2022/09/21 01:39:26;;;;;;;1.92;1.52;;;;;;;;;;615802;234;26781;-65
2022/09/21 01:41:55;;;;;;;1.50;1.40;;;;;;;;;;615650;233;26561;-65
2022/09/21 01:44:24;;;;;;;1.50;1.40;;;;;;;;;;615591;234;26790;-65
2022/09/21 01:46:53;;;;;;;2.30;1.70;;;;;;;;;;615512;234;26570;-65
2022/09/21 01:49:22;;;;;;;1.70;1.60;;;;;;;;;;617039;231;26824;-65
2022/09/21 01:51:51;;;;;;;1.98;1.77;;;;;;;;;;616651;233;26571;-65
2022/09/21 01:54:21;;;;;;;1.42;1.33;;;;;;;;;;616353;233;26595;-65
2022/09/21 01:56:52;;;;;;;1.35;1.30;;;;;;;;;;616408;233;26786;-66
2022/09/21 01:59:21;;;;;;;2.08;1.42;;;;;;;;;;616104;228;26567;-66
2022/09/21 02:01:51;;;;;;;1.50;1.40;;;;;;;;;;616019;233;26916;-66
2022/09/21 02:04:20;;;;;;;1.50;1.50;;;;;;;;;;616063;233;26591;-66
2022/09/21 02:06:49;;;;;;;1.58;1.48;;;;;;;;;;616083;233;26602;-66
2022/09/21 02:09:17;;;;;;;1.20;1.20;;;;;;;;;;615947;233;26603;-66
2022/09/21 02:11:46;;;;;;;1.40;1.30;;;;;;;;;;615939;228;26670;-66
2022/09/21 02:14:15;;;;;;;1.60;1.50;;;;;;;;;;615902;233;26635;-66
2022/09/21 02:16:45;;;;;;;1.73;1.20;;;;;;;;;;615642;233;26582;-66
2022/09/21 02:19:14;;;;;;;1.40;1.40;;;;;;;;;;615315;233;26606;-66
2022/09/21 02:22:02;;;;;;;1.45;1.33;;;;;;;;;;615451;233;26969;-66
2022/09/21 02:24:32;;;;;;;1.50;1.40;;;;;;;;;;614131;233;26647;-66
2022/09/21 02:27:06;;;;;;;1.37;1.27;;;;;;;;;;615446;234;26541;-66
2022/09/21 02:29:41;;;;;;;1.23;1.20;;;;;;;;;;615151;234;26564;-66
2022/09/21 02:32:10;;;;;;;1.30;1.25;;;;;;;;;;615633;233;26816;-66
2022/09/21 02:34:44;;;;;;;1.48;1.37;;;;;;;;;;615238;234;26569;-66
2022/09/21 02:37:18;;;;;;;1.55;1.30;;;;;;;;;;615957;234;26563;-65
2022/09/21 02:40:00;;;;;;;1.50;1.40;;;;;;;;;;615720;234;26541;-66
2022/09/21 02:42:29;;;;;;;1.42;1.33;;;;;;;;;;611425;233;26595;-64
2022/09/21 02:44:59;;;;;;;1.37;1.27;;;;;;;;;;615770;234;26558;-64
2022/09/21 02:47:28;;;;;;;1.50;1.40;;;;;;;;;;615309;234;26564;-66
2022/09/21 02:49:57;;;;;;;1.40;1.30;;;;;;;;;;615273;234;26784;-64
2022/09/21 02:52:26;;;;;;;1.58;1.30;;;;;;;;;;615497;234;26818;-64
2022/09/21 02:54:55;;;;;;;1.55;1.45;;;;;;;;;;615625;233;26571;-64
2022/09/21 02:57:24;;;;;;;1.35;1.35;;;;;;;;;;615705;233;26568;-64
2022/09/21 02:59:53;;;;;;;1.30;1.30;;;;;;;;;;616246;231;26576;-64
2022/09/21 03:02:22;;;;;;;1.30;1.20;;;;;;;;;;616970;233;26617;-64
2022/09/21 03:04:51;;;;;;;1.73;1.60;;;;;;;;;;616665;233;26610;-64
2022/09/21 03:07:19;;;;;;;1.50;1.40;;;;;;;;;;616620;233;26570;-64
2022/09/21 03:09:48;;;;;;;1.70;1.50;;;;;;;;;;616398;233;26797;-64
2022/09/21 03:12:17;;;;;;;1.00;1.00;;;;;;;;;;616322;233;26587;-64
2022/09/21 03:14:46;;;;;;;1.15;1.15;;;;;;;;;;616295;233;27219;-64
2022/09/21 03:17:15;;;;;;;1.83;1.20;;;;;;;;;;616305;233;26565;-64
2022/09/21 03:19:44;;;;;;;1.40;1.40;;;;;;;;;;615874;233;26592;-64
2022/09/21 03:22:12;;;;;;;1.40;1.30;;;;;;;;;;615931;233;26629;-64
2022/09/21 03:24:44;;;;;;;1.83;1.40;;;;;;;;;;615922;233;26629;-64
2022/09/21 03:27:13;;;;;;;1.10;1.10;;;;;;;;;;615946;227;26610;-64
2022/09/21 03:29:42;;;;;;;1.42;1.30;;;;;;;;;;615811;233;26591;-64
2022/09/21 03:32:11;;;;;;;1.37;1.37;;;;;;;;;;615927;233;26610;-64
2022/09/21 03:34:40;;;;;;;1.50;1.40;;;;;;;;;;616009;233;26822;-64
2022/09/21 03:37:08;;;;;;;1.37;1.27;;;;;;;;;;615719;232;26569;-64
2022/09/21 03:39:37;;;;;;;1.60;1.50;;;;;;;;;;615633;233;26790;-64
2022/09/21 03:42:08;;;;;;;1.27;1.10;;;;;;;;;;615629;234;26584;-64
2022/09/21 03:44:36;;;;;;;1.55;1.40;;;;;;;;;;615592;234;26586;-64
2022/09/21 03:47:05;;;;;;;2.12;1.40;;;;;;;;;;615574;234;26773;-64
2022/09/21 03:49:33;;;;;;;1.50;1.40;;;;;;;;;;615544;234;26580;-64
2022/09/21 03:52:02;;;;;;;1.15;1.15;;;;;;;;;;615096;231;26747;-64
2022/09/21 03:54:30;;;;;;;1.50;1.40;;;;;;;;;;612495;234;26633;-64
2022/09/21 03:56:59;;;;;;;1.62;1.42;;;;;;;;;;612477;234;26932;-64
2022/09/21 03:59:28;;;;;;;1.20;1.20;;;;;;;;;;612511;234;26609;-64
2022/09/21 04:01:57;;;;;;;1.60;1.50;;;;;;;;;;612454;234;26842;-65
2022/09/21 04:04:26;;;;;;;1.50;1.40;;;;;;;;;;612557;234;26552;-65
2022/09/21 04:06:55;;;;;;;1.40;1.30;;;;;;;;;;612450;235;26613;-65
2022/09/21 04:09:23;;;;;;;2.35;1.20;;;;;;;;;;612525;235;26593;-64
2022/09/21 04:11:52;;;;;;;2.60;1.48;;;;;;;;;;613443;232;26559;-64
2022/09/21 04:14:22;;;;;;;2.15;1.30;;;;;;;;;;613726;232;26868;-65
2022/09/21 04:16:50;;;;;;;1.30;1.30;;;;;;;;;;613393;234;26570;-65
2022/09/21 04:19:21;;;;;;;1.40;1.30;;;;;;;;;;613412;234;26824;-65
2022/09/21 04:21:50;;;;;;;1.23;1.15;;;;;;;;;;612928;234;26614;-65
2022/09/21 04:24:18;;;;;;;1.52;1.42;;;;;;;;;;612917;234;26640;-65
2022/09/21 04:26:45;;;;;;;1.60;1.50;;;;;;;;;;613014;234;26634;-65
2022/09/21 04:29:14;;;;;;;1.20;1.20;;;;;;;;;;612957;234;26639;-65
2022/09/21 04:31:43;;;;;;;1.50;1.37;;;;;;;;;;612630;234;26610;-65
2022/09/21 04:34:12;;;;;;;1.20;1.10;;;;;;;;;;612582;233;26607;-65
2022/09/21 04:36:41;;;;;;;1.30;1.27;;;;;;;;;;612601;233;27287;-65
2022/09/21 04:39:10;;;;;;;1.33;1.23;;;;;;;;;;612589;234;26575;-65
2022/09/21 04:41:38;;;;;;;1.40;1.30;;;;;;;;;;612747;234;26797;-65
2022/09/21 04:44:07;;;;;;;1.98;1.20;;;;;;;;;;612702;234;26578;-65
2022/09/21 04:46:37;;;;;;;1.33;1.33;;;;;;;;;;612690;228;26579;-65
2022/09/21 04:49:05;;;;;;;1.40;1.30;;;;;;;;;;612380;235;26580;-65
2022/09/21 04:51:34;;;;;;;1.35;1.25;;;;;;;;;;612434;234;26625;-65
2022/09/21 04:54:03;;;;;;;1.60;1.50;;;;;;;;;;612398;234;26626;-65
2022/09/21 04:56:32;;;;;;;1.42;1.30;;;;;;;;;;612429;235;26587;-65
2022/09/21 04:59:01;;;;;;;1.37;1.27;;;;;;;;;;612464;235;26630;-65
2022/09/21 05:01:30;;;;;;;1.40;1.30;;;;;;;;;;612520;235;27230;-65
2022/09/21 05:04:01;;;;;;;2.58;1.23;;;;;;;;;;612533;235;26645;-65
2022/09/21 05:06:28;;;;;;;1.58;1.37;;;;;;;;;;612464;235;26770;-66
2022/09/21 05:11:32;;;;;;;1.00;1.00;;;;;;;;;;612460;235;26838;-65
2022/09/21 05:14:00;;;;;;;1.12;1.05;;;;;;;;;;612464;235;26614;-66
2022/09/21 05:16:30;;;;;;;1.40;1.30;;;;;;;;;;612542;235;26655;-65
2022/09/21 05:18:59;;;;;;;1.50;1.40;;;;;;;;;;612618;234;26556;-66
2022/09/21 05:21:29;;;;;;;1.33;1.23;;;;;;;;;;612486;234;26581;-66
2022/09/21 05:23:57;;;;;;;1.65;1.20;;;;;;;;;;613664;232;26850;-66
2022/09/21 05:26:25;;;;;;;1.30;1.30;;;;;;;;;;613715;233;26605;-66
2022/09/21 05:28:54;;;;;;;1.40;1.30;;;;;;;;;;613378;234;26821;-65
2022/09/21 05:31:23;;;;;;;1.20;1.20;;;;;;;;;;613697;234;26545;-65
2022/09/21 05:33:53;;;;;;;2.03;1.40;;;;;;;;;;613047;234;27088;-65
2022/09/21 05:36:37;;;;;;;1.33;1.23;;;;;;;;;;613269;234;26590;-66
2022/09/21 05:39:06;;;;;;;2.53;1.40;;;;;;;;;;613209;234;26610;-66
2022/09/21 05:41:35;;;;;;;1.30;1.30;;;;;;;;;;613203;234;26548;-66
2022/09/21 05:44:04;;;;;;;1.50;1.30;;;;;;;;;;612960;233;26599;-66
2022/09/21 05:46:33;;;;;;;1.20;1.20;;;;;;;;;;612778;233;26846;-66
2022/09/21 05:49:02;;;;;;;1.30;1.23;;;;;;;;;;612507;234;26643;-66
2022/09/21 05:51:47;;;;;;;1.33;1.20;;;;;;;;;;612630;234;26564;-66
2022/09/21 05:54:17;;;;;;;1.80;1.20;;;;;;;;;;612448;235;26587;-66
2022/09/21 05:56:46;;;;;;;1.20;1.20;;;;;;;;;;612573;234;26579;-66
2022/09/21 05:59:21;;;;;;;1.50;1.10;;;;;;;;;;612433;234;26564;-66
2022/09/21 06:01:53;;;;;;;2.40;1.40;;;;;;;;;;612464;234;26615;-66
2022/09/21 06:04:22;;;;;;;1.10;1.10;;;;;;;;;;612045;235;26670;-66
2022/09/21 06:06:51;;;;;;;3.17;1.30;;;;;;;;;;612456;235;26608;-66
2022/09/21 06:09:19;;;;;;;1.40;1.30;;;;;;;;;;612468;228;27351;-66
2022/09/21 06:11:48;;;;;;;1.50;1.35;;;;;;;;;;612448;235;26636;-66
2022/09/21 06:14:23;;;;;;;2.00;1.33;;;;;;;;;;612435;235;26808;-66
2022/09/21 06:16:46;;;;;;;1.33;1.20;;;;;;;;;;612419;235;26578;-66
2022/09/21 06:19:15;;;;;;;2.42;1.50;;;;;;;;;;612847;235;26611;-66
2022/09/21 06:21:44;;;;;;;1.77;1.27;;;;;;;;;;612803;235;26576;-66
2022/09/21 06:24:13;;;;;;;1.30;1.20;;;;;;;;;;612854;234;26656;-66
2022/09/21 06:26:42;;;;;;;1.40;1.30;;;;;;;;;;612596;235;26619;-66
2022/09/21 06:29:11;;;;;;;1.20;1.20;;;;;;;;;;612460;234;26589;-66
2022/09/21 06:31:40;;;;;;;1.45;1.35;;;;;;;;;;612465;234;26587;-66
2022/09/21 06:34:09;;;;;;;1.30;1.20;;;;;;;;;;612796;228;26644;-66
2022/09/21 06:36:37;;;;;;;1.60;1.50;;;;;;;;;;614007;234;26821;-66
2022/09/21 06:39:06;;;;;;;1.40;1.30;;;;;;;;;;613468;233;26556;-66
2022/09/21 06:41:35;;;;;;;1.73;1.40;;;;;;;;;;613278;234;26829;-66
2022/09/21 06:44:04;;;;;;;1.45;1.30;;;;;;;;;;613166;234;26562;-66
2022/09/21 06:46:33;;;;;;;1.25;1.20;;;;;;;;;;613042;233;26603;-66
2022/09/21 06:49:02;;;;;;;1.42;1.33;;;;;;;;;;613086;233;26788;-66
2022/09/21 06:51:31;;;;;;;2.10;1.40;;;;;;;;;;613044;234;26611;-66
2022/09/21 06:54:00;;;;;;;2.00;1.60;;;;;;;;;;612777;233;26599;-66
2022/09/21 06:56:29;;;;;;;1.42;1.33;;;;;;;;;;612795;234;26566;-66
2022/09/21 06:58:58;;;;;;;1.45;1.35;;;;;;;;;;612789;234;26560;-66
2022/09/21 07:01:26;;;;;;;1.77;1.40;;;;;;;;;;612740;228;27223;-66
2022/09/21 07:03:55;;;;;;;1.40;1.40;;;;;;;;;;612738;233;26621;-66
2022/09/21 07:06:24;;;;;;;1.70;1.30;;;;;;;;;;612766;234;26815;-66
2022/09/21 07:08:53;;;;;;;1.75;1.65;;;;;;;;;;612796;234;26552;-66
2022/09/21 07:11:22;;;;;;;1.30;1.20;;;;;;;;;;612564;233;26581;-66
2022/09/21 07:13:51;;;;;;;1.60;1.50;;;;;;;;;;612436;234;26584;-66
2022/09/21 07:16:20;;;;;;;1.92;1.60;;;;;;;;;;612457;234;26620;-66
2022/09/21 07:18:48;;;;;;;2.03;1.75;;;;;;;;;;612496;235;26902;-67
2022/09/21 07:21:17;;;;;;;2.22;1.40;;;;;;;;;;612438;234;26620;-67
2022/09/21 07:23:46;;;;;;;1.80;1.58;;;;;;;;;;612436;235;26881;-67
2022/09/21 07:26:15;;;;;;;2.58;1.52;;;;;;;;;;612494;234;26584;-66
2022/09/21 07:28:44;;;;;;;2.97;1.87;;;;;;;;;;612423;234;26947;-66
2022/09/21 07:31:13;;;;;;;1.58;1.48;;;;;;;;;;612482;233;26909;-66
2022/09/21 07:33:43;;;;;;;1.85;1.75;;;;;;;;;;612442;235;26647;-66
2022/09/21 07:36:12;;;;;;;2.58;1.60;;;;;;;;;;612466;234;26637;-66
2022/09/21 07:38:40;;;;;;;1.90;1.60;;;;;;;;;;612436;233;26855;-66
2022/09/21 07:41:09;;;;;;;1.90;1.80;;;;;;;;;;612448;234;26577;-66
2022/09/21 07:43:39;;;;;;;2.45;1.60;;;;;;;;;;612419;234;26602;-66
2022/09/21 07:46:08;;;;;;;2.83;1.60;;;;;;;;;;613008;232;26595;-66
2022/09/21 07:48:37;;;;;;;1.80;1.70;;;;;;;;;;613820;234;26577;-66
2022/09/21 07:51:06;;;;;;;2.90;1.85;;;;;;;;;;613477;234;27231;-66
2022/09/21 07:53:35;;;;;;;2.45;1.90;;;;;;;;;;613305;233;26594;-66
2022/09/21 07:56:05;;;;;;;2.05;1.77;;;;;;;;;;613172;233;26583;-66
2022/09/21 08:01:08;;;;;;;2.10;1.90;;;;;;;;;;613068;235;26630;-66
2022/09/21 08:03:37;;;;;;;1.70;1.60;;;;;;;;;;613042;234;26622;-66
2022/09/21 08:06:06;;;;;;;1.87;1.77;;;;;;;;;;612726;233;26540;-66
2022/09/21 08:08:35;;;;;;;2.75;1.80;;;;;;;;;;612710;233;26655;-66
2022/09/21 08:11:04;;;;;;;1.95;1.83;;;;;;;;;;612720;229;26567;-66
2022/09/21 08:13:33;;;;;;;1.67;1.58;;;;;;;;;;612761;233;26572;-66
2022/09/21 08:16:02;;;;;;;2.58;1.75;;;;;;;;;;612792;234;26579;-66
2022/09/21 08:18:31;;;;;;;1.50;1.40;;;;;;;;;;612778;234;26590;-66
2022/09/21 08:21:00;;;;;;;1.83;1.73;;;;;;;;;;612714;233;26547;-66
2022/09/21 08:23:29;;;;;;;1.77;1.52;;;;;;;;;;612481;234;26833;-66
2022/09/21 08:25:59;;;;;;;1.90;1.62;;;;;;;;;;612491;235;26600;-66
2022/09/21 08:28:27;;;;;;;3.22;1.73;;;;;;;;;;612439;234;26620;-66
2022/09/21 08:30:58;;;;;;;1.80;1.70;;;;;;;;;;612378;234;27282;-66
2022/09/21 08:33:27;;;;;;;1.62;1.52;;;;;;;;;;612430;235;26648;-66
2022/09/21 08:35:55;;;;;;;2.17;1.52;;;;;;;;;;612443;235;26829;-66
2022/09/21 08:38:24;;;;;;;1.73;1.62;;;;;;;;;;612403;235;26627;-66
2022/09/21 08:40:54;;;;;;;1.73;1.62;;;;;;;;;;612746;235;26596;-65
2022/09/21 08:43:29;;;;;;;1.92;1.70;;;;;;;;;;612798;234;26602;-66
2022/09/21 08:45:57;;;;;;;1.70;1.60;;;;;;;;;;612188;235;26620;-65
2022/09/21 08:48:26;;;;;;;11.45;1.95;;;;;;;;;;612443;228;26607;-66
2022/09/21 08:50:55;;;;;;;4.18;2.00;;;;;;;;;;612363;235;26809;-65
2022/09/21 08:53:24;;;;;;;3.22;1.92;;;;;;;;;;612475;235;26578;-66
2022/09/21 08:55:55;;;;;;;3.03;1.77;;;;;;;;;;612149;235;26849;-66
2022/09/21 08:58:23;;;;;;;2.42;1.75;;;;;;;;;;613616;232;26954;-65
2022/09/21 09:00:53;;;;;;;2.72;1.98;;;;;;;;;;613742;234;26595;-65
2022/09/21 09:03:23;;;;;;;1.65;1.52;;;;;;;;;;613005;234;26597;-65
2022/09/21 09:05:52;;;;;;;2.30;1.87;;;;;;;;;;614310;230;26800;-65
2022/09/21 09:08:20;;;;;;;5.53;1.77;;;;;;;;;;623095;230;26580;-65
2022/09/21 09:11:04;;;;;;;2.80;1.60;;;;;;;;;;617188;230;26821;-65
2022/09/21 09:13:36;;;;;;;2.37;1.87;;;;;;;;;;611437;230;26641;-66
2022/09/21 09:16:07;;;;;;;2.65;1.70;;;;;;;;;;613247;233;26842;-66
2022/09/21 09:18:38;;;;;;;2.15;1.37;;;;;;;;;;613109;232;26640;-66
2022/09/21 09:21:09;;;;;;;2.97;1.80;;;;;;;;;;620505;230;26600;-65
2022/09/21 09:23:38;;;;;;;6.53;1.73;;;;;;;;;;619914;230;26556;-65
2022/09/21 09:26:08;;;;;;;1.75;1.65;;;;;;;;;;614581;233;26550;-66
2022/09/21 09:28:37;;;;;;;3.55;1.62;;;;;;;;;;613930;231;26531;-66
2022/09/21 09:31:10;;;;;;;2.83;1.60;;;;;;;;;;620089;231;26553;-66
2022/09/21 09:33:41;;;;;;;2.95;1.90;;;;;;;;;;613527;234;26837;-66
2022/09/21 09:36:10;;;;;;;5.62;1.58;;;;;;;;;;613677;234;26560;-65
2022/09/21 09:38:41;;;;;;;2.28;1.98;;;;;;;;;;614713;234;26564;-66
2022/09/21 09:41:14;;;;;;;3.15;1.52;;;;;;;;;;614437;231;26822;-65
2022/09/21 09:43:47;;;;;;;2.35;1.92;;;;;;;;;;613005;234;26885;-65
2022/09/21 09:46:36;;;;;;;4.50;1.60;;;;;;;;;;614987;231;26915;-65
2022/09/21 09:49:20;;;;;;;4.30;1.87;;;;;;;;;;610533;230;26625;-64
2022/09/21 09:51:48;;;;;;;2.55;1.70;;;;;;;;;;610228;234;26631;-66
2022/09/21 09:54:17;;;;;;;2.28;1.62;;;;;;;;;;618760;231;26805;-66
2022/09/21 09:56:46;;;;;;;4.72;2.20;;;;;;;;;;614374;231;26620;-66
2022/09/21 09:59:30;;;;;;;2.15;1.58;;;;;;;;;;612941;234;26592;-66
2022/09/21 10:02:00;;;;;;;1.62;1.52;;;;;;;;;;612780;234;26806;-66
2022/09/21 10:04:29;;;;;;;3.22;1.90;;;;;;;;;;613480;234;26581;-66
2022/09/21 10:06:57;;;;;;;1.60;1.48;;;;;;;;;;614959;234;26905;-66
2022/09/21 10:09:27;;;;;;;2.28;1.77;;;;;;;;;;615127;231;26637;-66
2022/09/21 10:12:05;;;;;;;2.25;1.60;;;;;;;;;;623466;230;26608;-66
2022/09/21 10:14:34;;;;;;;4.62;1.90;;;;;;;;;;615213;230;26576;-66
2022/09/21 10:17:03;;;;;;;3.17;1.50;;;;;;;;;;616573;231;26567;-65
2022/09/21 10:19:32;;;;;;;11.12;1.80;;;;;;;;;;619395;231;26874;-64
2022/09/21 10:22:01;;;;;;;5.47;1.70;;;;;;;;;;614365;233;26610;-64
2022/09/21 10:24:32;;;;;;;3.95;1.70;;;;;;;;;;619671;231;26629;-64
2022/09/21 10:27:05;;;;;;;3.10;1.60;;;;;;;;;;614001;231;26582;-65
2022/09/21 10:29:39;;;;;;;3.33;1.70;;;;;;;;;;614904;233;26612;-64
2022/09/21 10:32:21;;;;;;;2.90;1.73;;;;;;;;;;617125;231;26553;-64
2022/09/21 10:34:56;;;;;;;2.12;1.50;;;;;;;;;;614482;231;26563;-64
2022/09/21 10:37:27;;;;;;;2.80;1.65;;;;;;;;;;623307;230;26612;-64
2022/09/21 10:39:56;;;;;;;2.05;1.50;;;;;;;;;;614052;233;26844;-64
2022/09/21 10:42:24;;;;;;;1.87;1.27;;;;;;;;;;613806;233;26627;-64
2022/09/21 10:44:53;;;;;;;3.28;1.45;;;;;;;;;;615255;233;26653;-64
2022/09/21 10:47:22;;;;;;;2.58;2.03;;;;;;;;;;612231;234;26781;-64
2022/09/21 10:49:52;;;;;;;1.45;1.30;;;;;;;;;;617300;231;26612;-64
2022/09/21 10:52:21;;;;;;;2.92;1.37;;;;;;;;;;615836;231;26669;-64
2022/09/21 10:54:51;;;;;;;2.37;1.40;;;;;;;;;;614893;234;26557;-64
2022/09/21 10:57:19;;;;;;;1.77;1.50;;;;;;;;;;619417;231;26867;-64
2022/09/21 10:59:48;;;;;;;3.12;1.30;;;;;;;;;;612691;234;26593;-63
2022/09/21 11:02:26;;;;;;;2.05;1.50;;;;;;;;;;614306;234;26813;-64
2022/09/21 11:04:56;;;;;;;2.22;1.17;;;;;;;;;;613027;231;26786;-64
2022/09/21 11:07:31;;;;;;;1.12;1.12;;;;;;;;;;619064;231;27161;-64
2022/09/21 11:10:13;;;;;;;1.50;1.40;;;;;;;;;;616167;231;26602;-64
2022/09/21 11:12:42;;;;;;;2.53;1.65;;;;;;;;;;614628;230;26603;-63
2022/09/21 11:15:27;;;;;;;3.50;1.42;;;;;;;;;;613101;230;27314;-64
2022/09/21 11:18:02;;;;;;;2.37;1.20;;;;;;;;;;613776;234;27104;-64
2022/09/21 11:20:30;;;;;;;1.12;1.00;;;;;;;;;;614748;231;26810;-64
2022/09/21 11:23:00;;;;;;;1.35;1.10;;;;;;;;;;614280;231;26630;-64
2022/09/21 11:25:30;;;;;;;1.77;1.00;;;;;;;;;;619883;231;26566;-64
2022/09/21 11:28:00;;;;;;;3.83;1.35;;;;;;;;;;614469;233;26912;-64
2022/09/21 11:30:27;;;;;;;1.33;1.17;;;;;;;;;;619449;231;26804;-64
2022/09/21 11:33:03;;;;;;;1.45;1.30;;;;;;;;;;614119;227;26586;-64
2022/09/21 11:35:34;;;;;;;1.70;1.20;;;;;;;;;;615381;233;26800;-64
2022/09/21 11:38:03;;;;;;;1.85;1.17;;;;;;;;;;617055;231;26949;-64
2022/09/21 11:40:35;;;;;;;2.72;1.25;;;;;;;;;;615447;231;26548;-64
2022/09/21 11:43:07;;;;;;;3.25;1.15;;;;;;;;;;619535;231;26602;-64
2022/09/21 11:45:42;;;;;;;3.15;1.35;;;;;;;;;;613264;233;26579;-64
2022/09/21 11:48:11;;;;;;;1.65;1.08;;;;;;;;;;614250;232;26822;-64
2022/09/21 11:50:45;;;;;;;1.40;1.30;;;;;;;;;;614786;233;26834;-64
2022/09/21 11:53:18;;;;;;;1.45;1.30;;;;;;;;;;612957;233;26814;-64
2022/09/21 11:55:47;;;;;;;1.48;0.90;;;;;;;;;;614219;228;26628;-64
2022/09/21 11:58:17;;;;;;;0.95;0.95;;;;;;;;;;613934;234;26576;-64
2022/09/21 12:00:47;;;;;;;1.00;1.00;;;;;;;;;;612631;234;26594;-65
2022/09/21 12:03:18;;;;;;;1.37;1.05;;;;;;;;;;613662;231;26615;-65
2022/09/21 12:05:47;;;;;;;1.98;1.02;;;;;;;;;;621822;231;26825;-65
2022/09/21 12:08:22;;;;;;;1.30;1.17;;;;;;;;;;617054;231;26589;-65
2022/09/21 12:10:52;;;;;;;1.42;0.90;;;;;;;;;;615377;234;26833;-65
2022/09/21 12:13:21;;;;;;;2.12;0.98;;;;;;;;;;619251;231;26656;-65
2022/09/21 12:16:06;;;;;;;0.90;0.90;;;;;;;;;;613493;234;26556;-65
2022/09/21 12:18:35;;;;;;;1.10;1.10;;;;;;;;;;618009;230;26553;-64
2022/09/21 12:21:10;;;;;;;7.93;1.50;;;;;;;;;;614100;230;26843;-68
2022/09/21 12:23:41;;;;;;;3.05;1.52;;;;;;;;;;618389;231;26648;-69
2022/09/21 12:26:10;;;;;;;1.20;1.20;;;;;;;;;;612825;231;27331;-69
2022/09/21 12:28:39;;;;;;;2.80;1.20;;;;;;;;;;618805;231;26616;-69
2022/09/21 12:31:08;;;;;;;1.05;1.00;;;;;;;;;;615807;231;26856;-69
2022/09/21 12:33:39;;;;;;;3.40;1.17;;;;;;;;;;617351;230;26635;-69
2022/09/21 12:36:08;;;;;;;2.78;1.52;;;;;;;;;;616152;230;26611;-69
2022/09/21 12:38:39;;;;;;;3.53;1.20;;;;;;;;;;616071;231;26581;-69
2022/09/21 12:41:14;;;;;;;1.95;0.90;;;;;;;;;;617899;226;26563;-69
2022/09/21 12:43:55;;;;;;;1.58;1.00;;;;;;;;;;615732;230;27290;-69
2022/09/21 12:46:25;;;;;;;1.25;1.05;;;;;;;;;;617107;230;26594;-69
2022/09/21 12:48:54;;;;;;;5.47;0.93;;;;;;;;;;615095;231;26862;-69
2022/09/21 12:51:23;;;;;;;2.50;0.95;;;;;;;;;;616811;230;26564;-69
2022/09/21 12:53:52;;;;;;;1.85;1.00;;;;;;;;;;615468;230;26608;-69
2022/09/21 12:56:21;;;;;;;2.72;1.00;;;;;;;;;;618002;230;26809;-69
2022/09/21 12:59:05;;;;;;;1.62;1.05;;;;;;;;;;615485;230;26565;-69
2022/09/21 13:01:49;;;;;;;1.30;1.10;;;;;;;;;;614255;231;26625;-69
2022/09/21 13:04:19;;;;;;;0.90;0.90;;;;;;;;;;615958;230;26592;-70
2022/09/21 13:07:04;;;;;;;0.95;0.95;;;;;;;;;;614514;231;26584;-69
2022/09/21 13:09:33;;;;;;;1.10;1.10;;;;;;;;;;618040;231;26627;-63
2022/09/21 13:12:03;;;;;;;1.02;0.90;;;;;;;;;;616453;231;26558;-63
2022/09/21 13:14:35;;;;;;;0.95;0.93;;;;;;;;;;614873;231;26805;-63
2022/09/21 13:17:01;;;;;;;0.95;0.95;;;;;;;;;;616132;227;26540;-63
2022/09/21 13:19:28;;;;;;;1.17;1.00;;;;;;;;;;617401;231;26598;-63
2022/09/21 13:22:03;;;;;;;0.80;0.80;;;;;;;;;;617017;230;27144;-62
2022/09/21 13:24:32;;;;;;;1.05;0.95;;;;;;;;;;618478;230;26631;-63
2022/09/21 13:27:03;;;;;;;1.25;0.80;;;;;;;;;;615171;231;26564;-64
2022/09/21 13:29:30;;;;;;;0.80;0.80;;;;;;;;;;615752;231;26573;-63
2022/09/21 13:31:59;;;;;;;1.37;1.02;;;;;;;;;;619125;231;26625;-63
2022/09/21 13:34:29;;;;;;;1.00;0.98;;;;;;;;;;614348;231;26566;-63
2022/09/21 13:37:03;;;;;;;1.40;0.80;;;;;;;;;;617655;231;26823;-63
2022/09/21 13:39:32;;;;;;;1.45;1.00;;;;;;;;;;615014;231;26587;-63
2022/09/21 13:42:01;;;;;;;3.25;1.10;;;;;;;;;;614937;231;26568;-63
2022/09/21 13:44:45;;;;;;;2.20;0.93;;;;;;;;;;616214;230;26648;-63
2022/09/21 13:47:13;;;;;;;2.20;1.00;;;;;;;;;;617738;229;26616;-62
2022/09/21 13:49:43;;;;;;;2.00;1.00;;;;;;;;;;615734;230;27123;-62
2022/09/21 13:52:21;;;;;;;3.37;0.93;;;;;;;;;;616458;230;26549;-63
2022/09/21 13:54:50;;;;;;;9.63;1.10;;;;;;;;;;614775;230;26630;-62
2022/09/21 13:57:20;;;;;;;2.87;1.08;;;;;;;;;;615978;230;26854;-63
2022/09/21 13:59:49;;;;;;;2.00;0.90;;;;;;;;;;614277;233;26636;-63
2022/09/21 14:02:20;;;;;;;6.03;1.30;;;;;;;;;;613495;233;26815;-62
2022/09/21 14:04:49;;;;;;;1.25;1.10;;;;;;;;;;617557;228;26795;-63
2022/09/21 14:07:18;;;;;;;4.93;1.12;;;;;;;;;;614762;228;26552;-63
2022/09/21 14:09:51;;;;;;;1.75;0.90;;;;;;;;;;615598;231;26780;-62
2022/09/21 14:12:19;;;;;;;2.37;1.10;;;;;;;;;;616252;231;26560;-63
2022/09/21 14:15:11;;;;;;;2.25;1.17;;;;;;;;;;615151;228;26599;-63
2022/09/21 14:17:37;;;;;;;3.95;0.90;;;;;;;;;;615790;230;26564;-62
2022/09/21 14:20:21;;;;;;;3.45;1.00;;;;;;;;;;617109;230;26556;-62
2022/09/21 14:22:50;;;;;;;2.95;1.12;;;;;;;;;;615894;231;26611;-61
2022/09/21 14:25:24;;;;;;;2.05;1.10;;;;;;;;;;613825;230;26853;-62
2022/09/21 14:27:51;;;;;;;3.55;1.10;;;;;;;;;;616809;231;26602;-63
2022/09/21 14:30:20;;;;;;;4.12;1.33;;;;;;;;;;616533;231;26806;-63
2022/09/21 14:33:06;;;;;;;3.55;1.30;;;;;;;;;;616866;231;26632;-63
2022/09/21 14:35:36;;;;;;;1.02;0.90;;;;;;;;;;610627;231;26640;-62
2022/09/21 14:38:09;;;;;;;1.70;1.02;;;;;;;;;;616388;231;26667;-63
2022/09/21 14:40:37;;;;;;;1.75;1.00;;;;;;;;;;615169;231;26541;-62
2022/09/21 14:43:07;;;;;;;4.45;1.10;;;;;;;;;;615772;231;26557;-63
2022/09/21 14:45:49;;;;;;;1.10;1.00;;;;;;;;;;616719;231;26530;-63
2022/09/21 14:48:34;;;;;;;4.00;1.10;;;;;;;;;;615167;231;26556;-62
2022/09/21 14:51:05;;;;;;;1.37;1.10;;;;;;;;;;615716;230;26823;-62
2022/09/21 14:53:45;;;;;;;1.12;1.10;;;;;;;;;;615377;231;26853;-62
2022/09/21 14:56:20;;;;;;;1.60;0.95;;;;;;;;;;615945;230;26596;-62
2022/09/21 14:58:53;;;;;;;1.20;0.88;;;;;;;;;;613520;234;26593;-62
2022/09/21 15:01:25;;;;;;;2.45;0.80;;;;;;;;;;613016;234;26856;-63
2022/09/21 15:03:59;;;;;;;1.15;1.05;;;;;;;;;;612715;234;26843;-63
2022/09/21 15:11:48;;;;;;;1.23;1.12;;;;;;;;;;612689;230;26654;-62
2022/09/21 15:14:19;;;;;;;2.50;0.85;;;;;;;;;;612522;234;26626;-62